CEB916 RPVE-RPLC
Flight info
| Callsign | CEB916 |
|---|---|
| Flight time | N/A |
| Altitude | 32000 |
| Route | MINOR8A MINOR DCT CONDE W11 MIA W16 OLIVA OLIVA3P |
| Aircraft | A20N/M-SDE2E3FGHIRWXY/LB1 |
Departure
| Time | 2026-05-08 07:02 |
|---|---|
| Airport | Godofredo P. Ramos Airport (RPVE) |
Arrival
| Time | N/A |
|---|---|
| Airport | Clark International Airport / Clark Air Base (RPLC) |
| Time | Latitude | Longitude | Altitude | Speed | Heading |
|---|---|---|---|---|---|
| 2026-05-08 06:32 | 11.92680 | 121.96430 | 30 ft | 0 kts | 153° |
| 2026-05-08 06:53 | 11.92690 | 121.96425 | 30 ft | 2 kts | 153° |
| 2026-05-08 06:53 | 11.92704 | 121.96418 | 30 ft | 2 kts | 153° |
| 2026-05-08 06:54 | 11.92717 | 121.96410 | 30 ft | 2 kts | 154° |
| 2026-05-08 06:54 | 11.92731 | 121.96410 | 30 ft | 2 kts | 209° |
| 2026-05-08 06:54 | 11.92741 | 121.96422 | 30 ft | 2 kts | 251° |
| 2026-05-08 06:54 | 11.92745 | 121.96432 | 30 ft | 2 kts | 242° |
| 2026-05-08 06:55 | 11.92746 | 121.96435 | 30 ft | 0 kts | 239° |
| 2026-05-08 06:57 | 11.92738 | 121.96418 | 30 ft | 5 kts | 243° |
| 2026-05-08 06:57 | 11.92709 | 121.96358 | 30 ft | 13 kts | 244° |
| 2026-05-08 06:58 | 11.92658 | 121.96259 | 30 ft | 15 kts | 243° |
| 2026-05-08 06:58 | 11.92659 | 121.96188 | 30 ft | 12 kts | 320° |
| 2026-05-08 06:58 | 11.92746 | 121.96142 | 30 ft | 15 kts | 333° |
| 2026-05-08 06:58 | 11.92789 | 121.96064 | 30 ft | 14 kts | 251° |
| 2026-05-08 06:59 | 11.92738 | 121.95960 | 30 ft | 18 kts | 243° |
| 2026-05-08 06:59 | 11.92675 | 121.95836 | 30 ft | 21 kts | 243° |
| 2026-05-08 06:59 | 11.92601 | 121.95691 | 30 ft | 24 kts | 242° |
| 2026-05-08 06:59 | 11.92521 | 121.95529 | 30 ft | 26 kts | 242° |
| 2026-05-08 07:00 | 11.92433 | 121.95354 | 30 ft | 28 kts | 244° |
| 2026-05-08 07:00 | 11.92365 | 121.95214 | 30 ft | 20 kts | 241° |
| 2026-05-08 07:00 | 11.92301 | 121.95088 | 30 ft | 17 kts | 243° |
| 2026-05-08 07:00 | 11.92240 | 121.95033 | 30 ft | 7 kts | 228° |
| 2026-05-08 07:01 | 11.92252 | 121.95001 | 30 ft | 7 kts | 33° |
| 2026-05-08 07:01 | 11.92281 | 121.95049 | 30 ft | 6 kts | 63° |
| 2026-05-08 07:01 | 11.92288 | 121.95062 | 30 ft | 2 kts | 63° |
| 2026-05-08 07:01 | 11.92319 | 121.95128 | 30 ft | 38 kts | 64° |
| 2026-05-08 07:02 | 11.92575 | 121.95628 | 30 ft | 115 kts | 59° |
| 2026-05-08 07:02 | 11.92982 | 121.96447 | 477 ft | 128 kts | 68° |
| 2026-05-08 07:02 | 11.93329 | 121.97233 | 1107 ft | 127 kts | 64° |